sensor_id;sensor_type;location;lat;lon;timestamp;pressure;altitude;pressure_sealevel;temperature;humidity
39141;BME280;24875;48.436;10.298;2022-10-31T00:02:14;96748.47;;;10.22;100.00
39141;BME280;24875;48.436;10.298;2022-10-31T00:04:41;96746.66;;;10.31;100.00
39141;BME280;24875;48.436;10.298;2022-10-31T00:07:14;96751.78;;;10.40;100.00
39141;BME280;24875;48.436;10.298;2022-10-31T00:09:40;96754.38;;;10.16;100.00
39141;BME280;24875;48.436;10.298;2022-10-31T00:12:07;96745.50;;;10.17;100.00
39141;BME280;24875;48.436;10.298;2022-10-31T00:14:33;96749.28;;;10.31;100.00
39141;BME280;24875;48.436;10.298;2022-10-31T00:17:00;96747.78;;;10.20;100.00
39141;BME280;24875;48.436;10.298;2022-10-31T00:19:26;96741.66;;;10.12;100.00
39141;BME280;24875;48.436;10.298;2022-10-31T00:21:54;96747.44;;;9.99;100.00
39141;BME280;24875;48.436;10.298;2022-10-31T00:24:21;96749.63;;;9.78;100.00
39141;BME280;24875;48.436;10.298;2022-10-31T00:26:47;96744.72;;;9.91;100.00
39141;BME280;24875;48.436;10.298;2022-10-31T00:29:14;96742.09;;;9.91;100.00
39141;BME280;24875;48.436;10.298;2022-10-31T00:31:40;96743.03;;;9.82;100.00
39141;BME280;24875;48.436;10.298;2022-10-31T00:34:07;96736.38;;;9.96;100.00
39141;BME280;24875;48.436;10.298;2022-10-31T00:36:33;96739.84;;;9.96;100.00
39141;BME280;24875;48.436;10.298;2022-10-31T00:39:01;96753.00;;;9.96;100.00
39141;BME280;24875;48.436;10.298;2022-10-31T00:41:28;96757.41;;;9.88;100.00
39141;BME280;24875;48.436;10.298;2022-10-31T00:43:55;96744.53;;;9.77;100.00
39141;BME280;24875;48.436;10.298;2022-10-31T00:46:21;96754.88;;;9.78;100.00
39141;BME280;24875;48.436;10.298;2022-10-31T00:48:48;96756.38;;;9.81;100.00
39141;BME280;24875;48.436;10.298;2022-10-31T00:51:14;96762.44;;;9.73;100.00
39141;BME280;24875;48.436;10.298;2022-10-31T00:53:41;96755.53;;;9.72;100.00
39141;BME280;24875;48.436;10.298;2022-10-31T00:56:09;96747.66;;;9.80;100.00
39141;BME280;24875;48.436;10.298;2022-10-31T00:58:35;96756.75;;;9.53;100.00
39141;BME280;24875;48.436;10.298;2022-10-31T01:01:02;96755.84;;;9.69;100.00
39141;BME280;24875;48.436;10.298;2022-10-31T01:03:31;96754.06;;;9.70;100.00
39141;BME280;24875;48.436;10.298;2022-10-31T01:05:59;96760.91;;;9.63;100.00
39141;BME280;24875;48.436;10.298;2022-10-31T01:08:27;96760.91;;;9.63;100.00
39141;BME280;24875;48.436;10.298;2022-10-31T01:11:03;96766.38;;;9.77;100.00
39141;BME280;24875;48.436;10.298;2022-10-31T01:13:31;96760.75;;;9.65;100.00
39141;BME280;24875;48.436;10.298;2022-10-31T01:15:59;96769.91;;;9.53;100.00
39141;BME280;24875;48.436;10.298;2022-10-31T01:18:26;96765.38;;;9.63;100.00
39141;BME280;24875;48.436;10.298;2022-10-31T01:21:00;96753.56;;;9.74;100.00
39141;BME280;24875;48.436;10.298;2022-10-31T01:23:27;96759.59;;;9.67;100.00
39141;BME280;24875;48.436;10.298;2022-10-31T01:26:03;96756.50;;;9.71;100.00
39141;BME280;24875;48.436;10.298;2022-10-31T01:28:31;96763.72;;;9.69;100.00
39141;BME280;24875;48.436;10.298;2022-10-31T01:31:01;96762.44;;;9.73;100.00
39141;BME280;24875;48.436;10.298;2022-10-31T01:33:27;96766.84;;;9.65;100.00
39141;BME280;24875;48.436;10.298;2022-10-31T01:35:54;96758.78;;;9.67;100.00
39141;BME280;24875;48.436;10.298;2022-10-31T01:38:20;96760.75;;;9.65;100.00
39141;BME280;24875;48.436;10.298;2022-10-31T01:40:47;96756.34;;;9.73;100.00
39141;BME280;24875;48.436;10.298;2022-10-31T01:43:14;96756.69;;;9.70;100.00
39141;BME280;24875;48.436;10.298;2022-10-31T01:45:44;96754.16;;;9.61;100.00
39141;BME280;24875;48.436;10.298;2022-10-31T01:48:14;96748.53;;;9.56;100.00
39141;BME280;24875;48.436;10.298;2022-10-31T01:50:43;96750.53;;;9.54;100.00
39141;BME280;24875;48.436;10.298;2022-10-31T01:53:13;96752.50;;;9.60;100.00
39141;BME280;24875;48.436;10.298;2022-10-31T01:55:41;96752.56;;;9.68;100.00
39141;BME280;24875;48.436;10.298;2022-10-31T01:58:13;96754.81;;;9.55;100.00
39141;BME280;24875;48.436;10.298;2022-10-31T02:00:44;96750.44;;;9.38;100.00
39141;BME280;24875;48.436;10.298;2022-10-31T02:03:12;96747.44;;;9.33;100.00
39141;BME280;24875;48.436;10.298;2022-10-31T02:05:38;96743.00;;;9.25;100.00
39141;BME280;24875;48.436;10.298;2022-10-31T02:08:09;96738.59;;;9.34;100.00
39141;BME280;24875;48.436;10.298;2022-10-31T02:10:40;96739.44;;;9.34;100.00
39141;BME280;24875;48.436;10.298;2022-10-31T02:13:08;96743.47;;;9.21;100.00
39141;BME280;24875;48.436;10.298;2022-10-31T02:15:37;96731.94;;;9.14;100.00
39141;BME280;24875;48.436;10.298;2022-10-31T02:18:06;96739.13;;;9.12;100.00
39141;BME280;24875;48.436;10.298;2022-10-31T02:20:40;96732.28;;;9.19;100.00
39141;BME280;24875;48.436;10.298;2022-10-31T02:23:26;96741.25;;;9.08;100.00
39141;BME280;24875;48.436;10.298;2022-10-31T02:26:13;96730.28;;;8.88;100.00
39141;BME280;24875;48.436;10.298;2022-10-31T02:29:02;96737.44;;;9.03;100.00
39141;BME280;24875;48.436;10.298;2022-10-31T02:31:36;96731.50;;;9.01;100.00
39141;BME280;24875;48.436;10.298;2022-10-31T02:34:16;96737.00;;;9.08;100.00
39141;BME280;24875;48.436;10.298;2022-10-31T02:36:50;96730.78;;;9.16;100.00
39141;BME280;24875;48.436;10.298;2022-10-31T02:39:23;96731.59;;;9.17;100.00
39141;BME280;24875;48.436;10.298;2022-10-31T02:41:55;96728.38;;;9.23;100.00
39141;BME280;24875;48.436;10.298;2022-10-31T02:44:30;96723.03;;;9.15;100.00
39141;BME280;24875;48.436;10.298;2022-10-31T02:47:03;96731.28;;;9.20;100.00
39141;BME280;24875;48.436;10.298;2022-10-31T02:49:34;96730.44;;;9.11;100.00
39141;BME280;24875;48.436;10.298;2022-10-31T02:52:13;96741.44;;;9.15;100.00
39141;BME280;24875;48.436;10.298;2022-10-31T02:54:40;96734.03;;;8.85;100.00
39141;BME280;24875;48.436;10.298;2022-10-31T02:57:07;96742.91;;;8.84;100.00
39141;BME280;24875;48.436;10.298;2022-10-31T02:59:35;96730.88;;;9.07;100.00
39141;BME280;24875;48.436;10.298;2022-10-31T03:02:14;96730.53;;;9.02;100.00
39141;BME280;24875;48.436;10.298;2022-10-31T03:04:54;96724.78;;;8.99;100.00
39141;BME280;24875;48.436;10.298;2022-10-31T03:07:29;96726.97;;;9.11;100.00
39141;BME280;24875;48.436;10.298;2022-10-31T03:10:04;96728.63;;;9.12;100.00
39141;BME280;24875;48.436;10.298;2022-10-31T03:12:37;96729.91;;;9.08;100.00
39141;BME280;24875;48.436;10.298;2022-10-31T03:15:13;96729.22;;;9.06;100.00
39141;BME280;24875;48.436;10.298;2022-10-31T03:17:52;96730.53;;;9.02;100.00
39141;BME280;24875;48.436;10.298;2022-10-31T03:20:24;96732.53;;;9.08;100.00
39141;BME280;24875;48.436;10.298;2022-10-31T03:22:52;96734.28;;;9.00;100.00
39141;BME280;24875;48.436;10.298;2022-10-31T03:25:22;96732.03;;;9.05;100.00
39141;BME280;24875;48.436;10.298;2022-10-31T03:27:49;96735.13;;;9.00;100.00
39141;BME280;24875;48.436;10.298;2022-10-31T03:30:17;96732.50;;;9.00;100.00
39141;BME280;24875;48.436;10.298;2022-10-31T03:32:49;96740.78;;;9.13;100.00
39141;BME280;24875;48.436;10.298;2022-10-31T03:35:19;96736.75;;;9.01;100.00
39141;BME280;24875;48.436;10.298;2022-10-31T03:37:48;96744.66;;;9.01;100.00
39141;BME280;24875;48.436;10.298;2022-10-31T03:40:16;96741.94;;;9.10;100.00
39141;BME280;24875;48.436;10.298;2022-10-31T03:42:51;96739.94;;;9.12;100.00
39141;BME280;24875;48.436;10.298;2022-10-31T03:45:23;96740.78;;;9.13;100.00
39141;BME280;24875;48.436;10.298;2022-10-31T03:47:53;96738.13;;;9.05;100.00
39141;BME280;24875;48.436;10.298;2022-10-31T03:50:21;96737.34;;;8.87;100.00
39141;BME280;24875;48.436;10.298;2022-10-31T03:52:55;96738.16;;;8.88;100.00
39141;BME280;24875;48.436;10.298;2022-10-31T03:55:26;96732.38;;;8.84;100.00
39141;BME280;24875;48.436;10.298;2022-10-31T03:57:58;96729.09;;;8.82;100.00
39141;BME280;24875;48.436;10.298;2022-10-31T04:00:26;96734.00;;;8.77;100.00
39141;BME280;24875;48.436;10.298;2022-10-31T04:02:58;96729.69;;;8.94;100.00
39141;BME280;24875;48.436;10.298;2022-10-31T04:05:27;96732.72;;;8.81;100.00
39141;BME280;24875;48.436;10.298;2022-10-31T04:07:56;96731.78;;;8.90;100.00
39141;BME280;24875;48.436;10.298;2022-10-31T04:10:25;96722.25;;;8.89;100.00
39141;BME280;24875;48.436;10.298;2022-10-31T04:12:57;96726.78;;;8.79;100.00
39141;BME280;24875;48.436;10.298;2022-10-31T04:15:26;96717.06;;;8.72;100.00
39141;BME280;24875;48.436;10.298;2022-10-31T04:17:56;96730.09;;;8.81;100.00
39141;BME280;24875;48.436;10.298;2022-10-31T04:20:31;96722.84;;;8.83;100.00
39141;BME280;24875;48.436;10.298;2022-10-31T04:22:58;96722.75;;;8.67;100.00
39141;BME280;24875;48.436;10.298;2022-10-31T04:25:24;96730.97;;;8.64;100.00
39141;BME280;24875;48.436;10.298;2022-10-31T04:27:51;96727.28;;;8.57;100.00
39141;BME280;24875;48.436;10.298;2022-10-31T04:30:17;96726.31;;;8.58;100.00
39141;BME280;24875;48.436;10.298;2022-10-31T04:32:44;96725.53;;;8.66;100.00
39141;BME280;24875;48.436;10.298;2022-10-31T04:35:12;96717.09;;;8.54;100.00
39141;BME280;24875;48.436;10.298;2022-10-31T04:37:39;96723.03;;;8.39;100.00
39141;BME280;24875;48.436;10.298;2022-10-31T04:40:06;96723.63;;;8.33;100.00
39141;BME280;24875;48.436;10.298;2022-10-31T04:42:33;96718.06;;;8.36;100.00
39141;BME280;24875;48.436;10.298;2022-10-31T04:44:59;96715.81;;;8.41;100.00
39141;BME280;24875;48.436;10.298;2022-10-31T04:47:26;96715.53;;;8.27;100.00
39141;BME280;24875;48.436;10.298;2022-10-31T04:49:52;96720.19;;;8.15;100.00
39141;BME280;24875;48.436;10.298;2022-10-31T04:52:20;96714.56;;;8.28;100.00
39141;BME280;24875;48.436;10.298;2022-10-31T04:54:46;96702.72;;;8.24;100.00
39141;BME280;24875;48.436;10.298;2022-10-31T04:57:13;96719.44;;;8.23;100.00
39141;BME280;24875;48.436;10.298;2022-10-31T04:59:39;96713.22;;;8.24;100.00
39141;BME280;24875;48.436;10.298;2022-10-31T05:02:06;96712.84;;;8.19;100.00
39141;BME280;24875;48.436;10.298;2022-10-31T05:04:32;96714.84;;;8.25;100.00
39141;BME280;24875;48.436;10.298;2022-10-31T05:06:59;96717.78;;;8.22;100.00
39141;BME280;24875;48.436;10.298;2022-10-31T05:09:27;96722.22;;;8.21;100.00
39141;BME280;24875;48.436;10.298;2022-10-31T05:11:53;96713.00;;;8.17;100.00
39141;BME280;24875;48.436;10.298;2022-10-31T05:14:20;96716.50;;;8.08;100.00
39141;BME280;24875;48.436;10.298;2022-10-31T05:16:46;96722.19;;;8.04;100.00
39141;BME280;24875;48.436;10.298;2022-10-31T05:19:13;96715.66;;;8.08;100.00
39141;BME280;24875;48.436;10.298;2022-10-31T05:21:39;96721.25;;;8.22;100.00
39141;BME280;24875;48.436;10.298;2022-10-31T05:24:06;96720.25;;;8.23;100.00
39141;BME280;24875;48.436;10.298;2022-10-31T05:26:34;96706.84;;;8.26;100.00
39141;BME280;24875;48.436;10.298;2022-10-31T05:29:01;96717.41;;;8.17;100.00
39141;BME280;24875;48.436;10.298;2022-10-31T05:31:27;96699.72;;;8.19;100.00
39141;BME280;24875;48.436;10.298;2022-10-31T05:33:54;96703.38;;;8.08;100.00
39141;BME280;24875;48.436;10.298;2022-10-31T05:36:20;96702.31;;;8.01;100.00
39141;BME280;24875;48.436;10.298;2022-10-31T05:38:47;96701.81;;;8.15;100.00
39141;BME280;24875;48.436;10.298;2022-10-31T05:41:13;96689.25;;;8.09;100.00
39141;BME280;24875;48.436;10.298;2022-10-31T05:43:41;96697.66;;;8.13;100.00
39141;BME280;24875;48.436;10.298;2022-10-31T05:46:08;96699.25;;;8.06;100.00
39141;BME280;24875;48.436;10.298;2022-10-31T05:48:34;96685.91;;;8.17;100.00
39141;BME280;24875;48.436;10.298;2022-10-31T05:51:01;96695.28;;;8.19;100.00
39141;BME280;24875;48.436;10.298;2022-10-31T05:53:27;96692.41;;;8.13;100.00
39141;BME280;24875;48.436;10.298;2022-10-31T05:55:54;96693.13;;;8.15;100.00
39141;BME280;24875;48.436;10.298;2022-10-31T05:58:20;96695.44;;;8.18;100.00
39141;BME280;24875;48.436;10.298;2022-10-31T06:00:48;96700.88;;;8.07;100.00
39141;BME280;24875;48.436;10.298;2022-10-31T06:03:15;96698.28;;;7.89;100.00
39141;BME280;24875;48.436;10.298;2022-10-31T06:05:41;96695.50;;;7.91;100.00
39141;BME280;24875;48.436;10.298;2022-10-31T06:08:08;96707.19;;;7.79;100.00
39141;BME280;24875;48.436;10.298;2022-10-31T06:10:34;96699.19;;;7.81;100.00
39141;BME280;24875;48.436;10.298;2022-10-31T06:13:01;96695.19;;;7.94;100.00
39141;BME280;24875;48.436;10.298;2022-10-31T06:15:27;96702.84;;;7.87;100.00
39141;BME280;24875;48.436;10.298;2022-10-31T06:17:59;96685.22;;;7.97;100.00
39141;BME280;24875;48.436;10.298;2022-10-31T06:20:26;96695.72;;;7.97;100.00
39141;BME280;24875;48.436;10.298;2022-10-31T06:22:53;96680.88;;;8.06;100.00
39141;BME280;24875;48.436;10.298;2022-10-31T06:25:19;96679.38;;;8.03;100.00
39141;BME280;24875;48.436;10.298;2022-10-31T06:27:46;96694.75;;;7.98;100.00
39141;BME280;24875;48.436;10.298;2022-10-31T06:30:13;96683.78;;;8.03;100.00
39141;BME280;24875;48.436;10.298;2022-10-31T06:32:39;96683.78;;;8.03;100.00
39141;BME280;24875;48.436;10.298;2022-10-31T06:35:08;96689.78;;;8.13;100.00
39141;BME280;24875;48.436;10.298;2022-10-31T06:37:34;96700.53;;;8.02;100.00
39141;BME280;24875;48.436;10.298;2022-10-31T06:40:01;96702.91;;;7.95;100.00
39141;BME280;24875;48.436;10.298;2022-10-31T06:42:27;96703.28;;;8.00;100.00
39141;BME280;24875;48.436;10.298;2022-10-31T06:44:54;96693.94;;;8.15;100.00
39141;BME280;24875;48.436;10.298;2022-10-31T06:47:21;96693.34;;;8.21;100.00
39141;BME280;24875;48.436;10.298;2022-10-31T06:49:47;96694.69;;;8.25;100.00
39141;BME280;24875;48.436;10.298;2022-10-31T06:52:15;96688.44;;;8.44;100.00
39141;BME280;24875;48.436;10.298;2022-10-31T06:54:42;96691.75;;;8.46;100.00
39141;BME280;24875;48.436;10.298;2022-10-31T06:57:08;96694.97;;;8.40;100.00
39141;BME280;24875;48.436;10.298;2022-10-31T06:59:35;96696.25;;;8.36;100.00
39141;BME280;24875;48.436;10.298;2022-10-31T07:02:01;96703.22;;;8.45;100.00
39141;BME280;24875;48.436;10.298;2022-10-31T07:04:28;96713.84;;;8.60;100.00
39141;BME280;24875;48.436;10.298;2022-10-31T07:06:54;96692.56;;;8.71;100.00
39141;BME280;24875;48.436;10.298;2022-10-31T07:09:22;96705.66;;;8.89;100.00
39141;BME280;24875;48.436;10.298;2022-10-31T07:11:51;96703.59;;;9.00;100.00
39141;BME280;24875;48.436;10.298;2022-10-31T07:14:18;96707.06;;;9.08;100.00
39141;BME280;24875;48.436;10.298;2022-10-31T07:16:48;96706.97;;;9.18;100.00
39141;BME280;24875;48.436;10.298;2022-10-31T07:19:15;96704.34;;;9.18;100.00
39141;BME280;24875;48.436;10.298;2022-10-31T07:21:42;96709.44;;;9.19;100.00
39141;BME280;24875;48.436;10.298;2022-10-31T07:24:08;96703.75;;;9.32;100.00
39141;BME280;24875;48.436;10.298;2022-10-31T07:26:36;96704.47;;;9.50;100.00
39141;BME280;24875;48.436;10.298;2022-10-31T07:29:03;96702.19;;;9.55;100.00
39141;BME280;24875;48.436;10.298;2022-10-31T07:31:29;96709.78;;;9.66;100.00
39141;BME280;24875;48.436;10.298;2022-10-31T07:33:56;96709.78;;;9.73;100.00
39141;BME280;24875;48.436;10.298;2022-10-31T07:36:22;96703.53;;;9.67;100.00
39141;BME280;24875;48.436;10.298;2022-10-31T07:38:49;96709.50;;;9.76;100.00
39141;BME280;24875;48.436;10.298;2022-10-31T07:41:16;96706.88;;;9.92;100.00
39141;BME280;24875;48.436;10.298;2022-10-31T07:43:44;96712.53;;;10.05;100.00
39141;BME280;24875;48.436;10.298;2022-10-31T07:46:10;96706.25;;;9.90;100.00
39141;BME280;24875;48.436;10.298;2022-10-31T07:48:37;96705.94;;;10.09;100.00
39141;BME280;24875;48.436;10.298;2022-10-31T07:51:03;96705.31;;;10.23;100.00
39141;BME280;24875;48.436;10.298;2022-10-31T07:53:32;96704.66;;;10.37;100.00
39141;BME280;24875;48.436;10.298;2022-10-31T07:55:58;96692.81;;;10.49;100.00
39141;BME280;24875;48.436;10.298;2022-10-31T07:58:25;96693.78;;;10.72;100.00
39141;BME280;24875;48.436;10.298;2022-10-31T08:00:53;96697.56;;;10.85;100.00
39141;BME280;24875;48.436;10.298;2022-10-31T08:03:19;96691.78;;;10.90;100.00
39141;BME280;24875;48.436;10.298;2022-10-31T08:05:46;96685.03;;;10.79;100.00
39141;BME280;24875;48.436;10.298;2022-10-31T08:08:13;96696.34;;;11.11;100.00
39141;BME280;24875;48.436;10.298;2022-10-31T08:10:40;96693.50;;;11.21;100.00
39141;BME280;24875;48.436;10.298;2022-10-31T08:13:09;96686.50;;;11.44;100.00
39141;BME280;24875;48.436;10.298;2022-10-31T08:15:36;96682.34;;;11.49;100.00
39141;BME280;24875;48.436;10.298;2022-10-31T08:18:07;96683.13;;;11.65;100.00
39141;BME280;24875;48.436;10.298;2022-10-31T08:20:36;96690.50;;;11.78;100.00
39141;BME280;24875;48.436;10.298;2022-10-31T08:23:04;96687.50;;;11.81;100.00
39141;BME280;24875;48.436;10.298;2022-10-31T08:25:32;96683.81;;;11.90;100.00
39141;BME280;24875;48.436;10.298;2022-10-31T08:28:00;96680.78;;;12.01;100.00
39141;BME280;24875;48.436;10.298;2022-10-31T08:30:28;96675.72;;;12.14;100.00
39141;BME280;24875;48.436;10.298;2022-10-31T08:32:59;96669.41;;;12.22;100.00
39141;BME280;24875;48.436;10.298;2022-10-31T08:35:28;96668.59;;;12.22;100.00
39141;BME280;24875;48.436;10.298;2022-10-31T08:37:54;96661.41;;;12.30;100.00
39141;BME280;24875;48.436;10.298;2022-10-31T08:40:22;96669.91;;;12.40;100.00
39141;BME280;24875;48.436;10.298;2022-10-31T08:42:55;96668.88;;;12.64;100.00
39141;BME280;24875;48.436;10.298;2022-10-31T08:45:22;96670.34;;;12.66;100.00
39141;BME280;24875;48.436;10.298;2022-10-31T08:47:49;96664.94;;;12.60;100.00
39141;BME280;24875;48.436;10.298;2022-10-31T08:50:16;96660.81;;;12.79;100.00
39141;BME280;24875;48.436;10.298;2022-10-31T08:52:44;96666.69;;;12.89;100.00
39141;BME280;24875;48.436;10.298;2022-10-31T08:55:10;96667.13;;;12.93;100.00
39141;BME280;24875;48.436;10.298;2022-10-31T08:57:37;96664.78;;;12.98;100.00
39141;BME280;24875;48.436;10.298;2022-10-31T09:00:04;96669.97;;;13.06;100.00
39141;BME280;24875;48.436;10.298;2022-10-31T09:02:31;96668.88;;;13.15;100.00
39141;BME280;24875;48.436;10.298;2022-10-31T09:04:58;96660.22;;;13.21;100.00
39141;BME280;24875;48.436;10.298;2022-10-31T09:07:25;96662.06;;;13.20;100.00
39141;BME280;24875;48.436;10.298;2022-10-31T09:09:53;96657.13;;;13.32;100.00
39141;BME280;24875;48.436;10.298;2022-10-31T09:12:21;96655.19;;;13.26;100.00
39141;BME280;24875;48.436;10.298;2022-10-31T09:14:49;96651.34;;;13.42;100.00
39141;BME280;24875;48.436;10.298;2022-10-31T09:17:15;96654.44;;;13.60;100.00
39141;BME280;24875;48.436;10.298;2022-10-31T09:19:42;96649.53;;;13.78;100.00
39141;BME280;24875;48.436;10.298;2022-10-31T09:22:09;96636.09;;;13.94;100.00
39141;BME280;24875;48.436;10.298;2022-10-31T09:24:35;96646.69;;;13.94;100.00
39141;BME280;24875;48.436;10.298;2022-10-31T09:27:03;96645.06;;;14.14;100.00
39141;BME280;24875;48.436;10.298;2022-10-31T09:29:30;96644.81;;;14.09;100.00
39141;BME280;24875;48.436;10.298;2022-10-31T09:31:56;96640.75;;;13.92;100.00
39141;BME280;24875;48.436;10.298;2022-10-31T09:34:23;96635.69;;;13.97;100.00
39141;BME280;24875;48.436;10.298;2022-10-31T09:36:49;96640.16;;;14.11;100.00
39141;BME280;24875;48.436;10.298;2022-10-31T09:39:16;96638.31;;;14.11;100.00
39141;BME280;24875;48.436;10.298;2022-10-31T09:42:04;96641.91;;;14.04;100.00
39141;BME280;24875;48.436;10.298;2022-10-31T09:44:43;96639.28;;;14.25;100.00
39141;BME280;24875;48.436;10.298;2022-10-31T09:47:18;96637.44;;;14.25;100.00
39141;BME280;24875;48.436;10.298;2022-10-31T09:50:02;96634.84;;;14.32;100.00
39141;BME280;24875;48.436;10.298;2022-10-31T09:52:35;96645.84;;;14.29;100.00
39141;BME280;24875;48.436;10.298;2022-10-31T09:55:04;96643.63;;;14.53;100.00
39141;BME280;24875;48.436;10.298;2022-10-31T09:57:37;96641.97;;;14.52;100.00
39141;BME280;24875;48.436;10.298;2022-10-31T10:00:05;96634.09;;;14.38;100.00
39141;BME280;24875;48.436;10.298;2022-10-31T10:02:36;96637.94;;;14.35;100.00
39141;BME280;24875;48.436;10.298;2022-10-31T10:05:08;96640.28;;;14.45;100.00
39141;BME280;24875;48.436;10.298;2022-10-31T10:07:41;96634.16;;;14.65;100.00
39141;BME280;24875;48.436;10.298;2022-10-31T10:10:14;96628.19;;;14.63;100.00
39141;BME280;24875;48.436;10.298;2022-10-31T10:12:55;96639.66;;;14.70;100.00
39141;BME280;24875;48.436;10.298;2022-10-31T10:15:39;96633.44;;;14.57;100.00
39141;BME280;24875;48.436;10.298;2022-10-31T10:18:27;96631.94;;;14.75;100.00
39141;BME280;24875;48.436;10.298;2022-10-31T10:21:08;96631.00;;;14.82;100.00
39141;BME280;24875;48.436;10.298;2022-10-31T10:23:45;96627.56;;;14.88;100.00
39141;BME280;24875;48.436;10.298;2022-10-31T10:26:17;96625.84;;;14.74;100.00
39141;BME280;24875;48.436;10.298;2022-10-31T10:28:48;96619.91;;;15.00;100.00
39141;BME280;24875;48.436;10.298;2022-10-31T10:31:18;96618.25;;;14.99;100.00
39141;BME280;24875;48.436;10.298;2022-10-31T10:33:56;96619.09;;;15.06;100.00
39141;BME280;24875;48.436;10.298;2022-10-31T10:36:30;96612.41;;;15.10;100.00
39141;BME280;24875;48.436;10.298;2022-10-31T10:39:03;96612.25;;;15.18;100.00
39141;BME280;24875;48.436;10.298;2022-10-31T10:41:32;96615.47;;;15.13;100.00
39141;BME280;24875;48.436;10.298;2022-10-31T10:44:01;96611.41;;;15.17;100.00
39141;BME280;24875;48.436;10.298;2022-10-31T10:46:32;96609.47;;;14.98;100.00
39141;BME280;24875;48.436;10.298;2022-10-31T10:49:24;96604.84;;;15.13;100.00
39141;BME280;24875;48.436;10.298;2022-10-31T10:51:58;96604.19;;;15.32;100.00
39141;BME280;24875;48.436;10.298;2022-10-31T10:54:46;96601.53;;;15.38;100.00
39141;BME280;24875;48.436;10.298;2022-10-31T10:57:22;96608.91;;;15.09;100.00
39141;BME280;24875;48.436;10.298;2022-10-31T10:59:55;96598.13;;;15.17;100.00
39141;BME280;24875;48.436;10.298;2022-10-31T11:02:23;96602.81;;;15.09;100.00
39141;BME280;24875;48.436;10.298;2022-10-31T11:04:51;96599.94;;;15.10;100.00
39141;BME280;24875;48.436;10.298;2022-10-31T11:07:18;96594.25;;;15.20;100.00
39141;BME280;24875;48.436;10.298;2022-10-31T11:09:45;96587.44;;;15.04;100.00
39141;BME280;24875;48.436;10.298;2022-10-31T11:12:18;96586.78;;;15.23;100.00
39141;BME280;24875;48.436;10.298;2022-10-31T11:14:48;96589.91;;;15.06;100.00
39141;BME280;24875;48.436;10.298;2022-10-31T11:17:26;96583.19;;;15.03;100.00
39141;BME280;24875;48.436;10.298;2022-10-31T11:20:03;96581.47;;;15.23;100.00
39141;BME280;24875;48.436;10.298;2022-10-31T11:22:30;96581.81;;;15.14;100.00
39141;BME280;24875;48.436;10.298;2022-10-31T11:24:57;96571.84;;;15.22;100.00
39141;BME280;24875;48.436;10.298;2022-10-31T11:27:24;96570.25;;;15.21;100.00
39141;BME280;24875;48.436;10.298;2022-10-31T11:29:51;96574.41;;;15.43;100.00
39141;BME280;24875;48.436;10.298;2022-10-31T11:32:21;96558.94;;;15.59;100.00
39141;BME280;24875;48.436;10.298;2022-10-31T11:34:51;96562.63;;;15.65;100.00
39141;BME280;24875;48.436;10.298;2022-10-31T11:37:21;96563.47;;;15.72;100.00
39141;BME280;24875;48.436;10.298;2022-10-31T11:39:51;96561.84;;;15.71;100.00
39141;BME280;24875;48.436;10.298;2022-10-31T11:42:21;96555.13;;;15.87;100.00
39141;BME280;24875;48.436;10.298;2022-10-31T11:44:50;96541.81;;;15.75;100.00
39141;BME280;24875;48.436;10.298;2022-10-31T11:47:25;96547.13;;;15.75;100.00
39141;BME280;24875;48.436;10.298;2022-10-31T11:49:52;96536.50;;;15.75;100.00
39141;BME280;24875;48.436;10.298;2022-10-31T11:52:21;96534.06;;;15.80;100.00
39141;BME280;24875;48.436;10.298;2022-10-31T11:54:51;96532.81;;;15.76;100.00
39141;BME280;24875;48.436;10.298;2022-10-31T11:57:24;96529.59;;;16.19;100.00
39141;BME280;24875;48.436;10.298;2022-10-31T11:59:52;96530.22;;;16.14;100.00
39141;BME280;24875;48.436;10.298;2022-10-31T12:02:20;96519.59;;;16.27;100.00
39141;BME280;24875;48.436;10.298;2022-10-31T12:04:55;96513.22;;;16.60;100.00
39141;BME280;24875;48.436;10.298;2022-10-31T12:07:24;96519.38;;;16.48;100.00
39141;BME280;24875;48.436;10.298;2022-10-31T12:09:51;96510.75;;;16.72;100.00
39141;BME280;24875;48.436;10.298;2022-10-31T12:12:50;96511.53;;;16.92;100.00
39141;BME280;24875;48.436;10.298;2022-10-31T12:15:30;96504.38;;;16.86;100.00
39141;BME280;24875;48.436;10.298;2022-10-31T12:18:32;96502.47;;;17.06;100.00
39141;BME280;24875;48.436;10.298;2022-10-31T12:21:21;96499.56;;;17.20;100.00
39141;BME280;24875;48.436;10.298;2022-10-31T12:24:00;96500.34;;;17.20;100.00
39141;BME280;24875;48.436;10.298;2022-10-31T12:26:35;96496.91;;;17.13;100.00
39141;BME280;24875;48.436;10.298;2022-10-31T12:29:15;96499.16;;;17.10;100.00
39141;BME280;24875;48.436;10.298;2022-10-31T12:31:52;96486.44;;;17.18;100.00
39141;BME280;24875;48.436;10.298;2022-10-31T12:34:37;96482.19;;;17.05;100.00
39141;BME280;24875;48.436;10.298;2022-10-31T12:37:16;96481.34;;;17.10;100.00
39141;BME280;24875;48.436;10.298;2022-10-31T12:39:53;96466.94;;;17.31;100.00
39141;BME280;24875;48.436;10.298;2022-10-31T12:42:33;96461.84;;;17.16;100.00
39141;BME280;24875;48.436;10.298;2022-10-31T12:45:33;96469.84;;;17.16;100.00
39141;BME280;24875;48.436;10.298;2022-10-31T12:48:19;96455.47;;;17.24;100.00
39141;BME280;24875;48.436;10.298;2022-10-31T12:50:56;96460.84;;;17.17;100.00
39141;BME280;24875;48.436;10.298;2022-10-31T12:53:35;96455.94;;;17.14;100.00
39141;BME280;24875;48.436;10.298;2022-10-31T12:56:15;96451.16;;;17.29;100.00
39141;BME280;24875;48.436;10.298;2022-10-31T12:58:46;96439.50;;;17.30;100.00
39141;BME280;24875;48.436;10.298;2022-10-31T13:01:18;96441.19;;;17.18;100.00